sensor_id;sensor_type;location;lat;lon;timestamp;P1;durP1;ratioP1;P2;durP2;ratioP2
59207;SDS011;44977;53.132;6.408;2023-05-02T00:03:49;16.33;;;8.43;;
59207;SDS011;44977;53.132;6.408;2023-05-02T00:08:50;15.43;;;8.02;;
59207;SDS011;44977;53.132;6.408;2023-05-02T00:13:51;14.88;;;7.40;;
59207;SDS011;44977;53.132;6.408;2023-05-02T00:18:51;13.48;;;6.20;;
59207;SDS011;44977;53.132;6.408;2023-05-02T00:23:52;11.68;;;5.30;;
59207;SDS011;44977;53.132;6.408;2023-05-02T00:28:53;10.18;;;4.82;;
59207;SDS011;44977;53.132;6.408;2023-05-02T00:33:54;10.68;;;4.30;;
59207;SDS011;44977;53.132;6.408;2023-05-02T00:38:55;12.52;;;4.80;;
59207;SDS011;44977;53.132;6.408;2023-05-02T00:43:56;13.73;;;4.07;;
59207;SDS011;44977;53.132;6.408;2023-05-02T00:48:57;12.32;;;3.97;;
59207;SDS011;44977;53.132;6.408;2023-05-02T00:53:59;12.25;;;3.70;;
59207;SDS011;44977;53.132;6.408;2023-05-02T00:59:00;12.20;;;4.22;;
59207;SDS011;44977;53.132;6.408;2023-05-02T01:14:22;11.00;;;3.90;;
59207;SDS011;44977;53.132;6.408;2023-05-02T01:19:28;9.75;;;3.72;;
59207;SDS011;44977;53.132;6.408;2023-05-02T01:24:36;10.43;;;3.67;;
59207;SDS011;44977;53.132;6.408;2023-05-02T01:29:53;13.40;;;4.90;;
59207;SDS011;44977;53.132;6.408;2023-05-02T01:34:58;16.98;;;5.07;;
59207;SDS011;44977;53.132;6.408;2023-05-02T01:40:00;14.10;;;4.97;;
59207;SDS011;44977;53.132;6.408;2023-05-02T01:45:04;16.48;;;4.75;;
59207;SDS011;44977;53.132;6.408;2023-05-02T01:50:07;16.23;;;4.68;;
59207;SDS011;44977;53.132;6.408;2023-05-02T01:55:12;15.07;;;5.13;;
59207;SDS011;44977;53.132;6.408;2023-05-02T02:00:15;14.35;;;4.30;;
59207;SDS011;44977;53.132;6.408;2023-05-02T02:05:17;16.65;;;5.05;;
59207;SDS011;44977;53.132;6.408;2023-05-02T02:10:19;18.40;;;5.32;;
59207;SDS011;44977;53.132;6.408;2023-05-02T02:15:24;18.65;;;5.50;;
59207;SDS011;44977;53.132;6.408;2023-05-02T02:20:28;23.83;;;5.65;;
59207;SDS011;44977;53.132;6.408;2023-05-02T02:25:29;21.45;;;6.03;;
59207;SDS011;44977;53.132;6.408;2023-05-02T02:30:31;20.83;;;5.97;;
59207;SDS011;44977;53.132;6.408;2023-05-02T02:35:34;20.48;;;6.00;;
59207;SDS011;44977;53.132;6.408;2023-05-02T02:40:52;21.27;;;5.80;;
59207;SDS011;44977;53.132;6.408;2023-05-02T02:46:00;17.92;;;5.63;;
59207;SDS011;44977;53.132;6.408;2023-05-02T02:51:24;17.73;;;5.45;;
59207;SDS011;44977;53.132;6.408;2023-05-02T02:56:41;18.23;;;5.57;;
59207;SDS011;44977;53.132;6.408;2023-05-02T03:01:45;19.00;;;6.22;;
59207;SDS011;44977;53.132;6.408;2023-05-02T03:06:53;17.30;;;4.78;;
59207;SDS011;44977;53.132;6.408;2023-05-02T03:11:54;16.23;;;4.55;;
59207;SDS011;44977;53.132;6.408;2023-05-02T03:16:56;14.23;;;4.43;;
59207;SDS011;44977;53.132;6.408;2023-05-02T03:21:57;16.52;;;4.68;;
59207;SDS011;44977;53.132;6.408;2023-05-02T03:26:58;13.27;;;4.25;;
59207;SDS011;44977;53.132;6.408;2023-05-02T03:31:59;13.13;;;4.13;;
59207;SDS011;44977;53.132;6.408;2023-05-02T03:37:00;14.82;;;3.80;;
59207;SDS011;44977;53.132;6.408;2023-05-02T03:42:01;16.92;;;4.45;;
59207;SDS011;44977;53.132;6.408;2023-05-02T03:47:01;15.82;;;3.78;;
59207;SDS011;44977;53.132;6.408;2023-05-02T03:52:02;13.18;;;3.63;;
59207;SDS011;44977;53.132;6.408;2023-05-02T03:57:03;13.95;;;3.78;;
59207;SDS011;44977;53.132;6.408;2023-05-02T04:02:04;9.93;;;3.28;;
59207;SDS011;44977;53.132;6.408;2023-05-02T04:07:05;13.95;;;3.35;;
59207;SDS011;44977;53.132;6.408;2023-05-02T04:12:14;12.48;;;3.28;;
59207;SDS011;44977;53.132;6.408;2023-05-02T04:17:15;11.93;;;2.92;;
59207;SDS011;44977;53.132;6.408;2023-05-02T04:22:15;10.30;;;2.88;;
59207;SDS011;44977;53.132;6.408;2023-05-02T04:27:16;12.18;;;2.58;;
59207;SDS011;44977;53.132;6.408;2023-05-02T04:32:17;11.98;;;2.78;;
59207;SDS011;44977;53.132;6.408;2023-05-02T04:37:18;14.18;;;3.08;;
59207;SDS011;44977;53.132;6.408;2023-05-02T04:42:18;10.18;;;3.00;;
59207;SDS011;44977;53.132;6.408;2023-05-02T04:47:19;10.93;;;3.28;;
59207;SDS011;44977;53.132;6.408;2023-05-02T04:52:20;12.35;;;3.33;;
59207;SDS011;44977;53.132;6.408;2023-05-02T04:57:21;10.68;;;3.15;;
59207;SDS011;44977;53.132;6.408;2023-05-02T05:02:21;11.25;;;3.13;;
59207;SDS011;44977;53.132;6.408;2023-05-02T05:07:22;16.50;;;3.67;;
59207;SDS011;44977;53.132;6.408;2023-05-02T05:12:24;13.45;;;3.50;;
59207;SDS011;44977;53.132;6.408;2023-05-02T05:17:25;13.10;;;3.40;;
59207;SDS011;44977;53.132;6.408;2023-05-02T05:22:26;11.85;;;3.30;;
59207;SDS011;44977;53.132;6.408;2023-05-02T05:27:26;12.88;;;3.80;;
59207;SDS011;44977;53.132;6.408;2023-05-02T05:32:27;10.68;;;3.22;;
59207;SDS011;44977;53.132;6.408;2023-05-02T05:37:28;13.40;;;3.45;;
59207;SDS011;44977;53.132;6.408;2023-05-02T05:42:29;11.55;;;3.17;;
59207;SDS011;44977;53.132;6.408;2023-05-02T05:47:29;10.52;;;3.10;;
59207;SDS011;44977;53.132;6.408;2023-05-02T05:52:30;10.35;;;3.10;;
59207;SDS011;44977;53.132;6.408;2023-05-02T05:57:31;11.85;;;3.10;;
59207;SDS011;44977;53.132;6.408;2023-05-02T06:02:31;12.23;;;3.28;;
59207;SDS011;44977;53.132;6.408;2023-05-02T06:07:32;11.43;;;3.50;;
59207;SDS011;44977;53.132;6.408;2023-05-02T06:12:33;10.18;;;3.17;;
59207;SDS011;44977;53.132;6.408;2023-05-02T06:17:33;13.38;;;3.88;;
59207;SDS011;44977;53.132;6.408;2023-05-02T06:22:34;10.98;;;3.35;;
59207;SDS011;44977;53.132;6.408;2023-05-02T06:27:36;15.00;;;4.03;;
59207;SDS011;44977;53.132;6.408;2023-05-02T06:32:36;9.55;;;3.60;;
59207;SDS011;44977;53.132;6.408;2023-05-02T06:37:37;12.00;;;3.85;;
59207;SDS011;44977;53.132;6.408;2023-05-02T06:42:38;15.48;;;4.30;;
59207;SDS011;44977;53.132;6.408;2023-05-02T06:47:38;11.18;;;3.58;;
59207;SDS011;44977;53.132;6.408;2023-05-02T06:52:39;11.43;;;3.67;;
59207;SDS011;44977;53.132;6.408;2023-05-02T06:57:40;12.45;;;3.90;;
59207;SDS011;44977;53.132;6.408;2023-05-02T07:02:41;10.95;;;3.42;;
59207;SDS011;44977;53.132;6.408;2023-05-02T07:07:42;13.05;;;4.00;;
59207;SDS011;44977;53.132;6.408;2023-05-02T07:12:44;12.88;;;4.05;;
59207;SDS011;44977;53.132;6.408;2023-05-02T07:17:44;8.50;;;3.50;;
59207;SDS011;44977;53.132;6.408;2023-05-02T07:22:46;11.35;;;3.47;;
59207;SDS011;44977;53.132;6.408;2023-05-02T07:27:47;11.57;;;4.20;;
59207;SDS011;44977;53.132;6.408;2023-05-02T07:32:48;10.27;;;3.78;;
59207;SDS011;44977;53.132;6.408;2023-05-02T07:37:48;12.05;;;3.90;;
59207;SDS011;44977;53.132;6.408;2023-05-02T07:42:49;12.10;;;3.05;;
59207;SDS011;44977;53.132;6.408;2023-05-02T07:47:50;8.70;;;3.40;;
59207;SDS011;44977;53.132;6.408;2023-05-02T07:52:50;13.85;;;3.83;;
59207;SDS011;44977;53.132;6.408;2023-05-02T07:57:52;13.98;;;4.00;;
59207;SDS011;44977;53.132;6.408;2023-05-02T08:02:52;10.27;;;3.85;;
59207;SDS011;44977;53.132;6.408;2023-05-02T08:07:53;11.48;;;3.40;;
59207;SDS011;44977;53.132;6.408;2023-05-02T08:12:54;11.15;;;3.70;;
59207;SDS011;44977;53.132;6.408;2023-05-02T08:17:55;9.57;;;3.00;;
59207;SDS011;44977;53.132;6.408;2023-05-02T08:22:55;10.30;;;2.97;;
59207;SDS011;44977;53.132;6.408;2023-05-02T08:27:56;8.93;;;2.60;;
59207;SDS011;44977;53.132;6.408;2023-05-02T08:32:57;10.52;;;2.53;;
59207;SDS011;44977;53.132;6.408;2023-05-02T08:37:57;9.63;;;3.30;;
59207;SDS011;44977;53.132;6.408;2023-05-02T08:42:58;8.07;;;2.63;;
59207;SDS011;44977;53.132;6.408;2023-05-02T08:47:59;9.40;;;2.38;;
59207;SDS011;44977;53.132;6.408;2023-05-02T08:53:00;8.32;;;2.28;;
59207;SDS011;44977;53.132;6.408;2023-05-02T08:58:04;9.07;;;2.33;;
59207;SDS011;44977;53.132;6.408;2023-05-02T09:08:25;9.38;;;2.50;;
59207;SDS011;44977;53.132;6.408;2023-05-02T09:18:40;8.80;;;2.30;;
59207;SDS011;44977;53.132;6.408;2023-05-02T09:23:50;5.53;;;1.98;;
59207;SDS011;44977;53.132;6.408;2023-05-02T09:28:53;5.75;;;1.70;;
59207;SDS011;44977;53.132;6.408;2023-05-02T09:33:55;5.65;;;1.58;;
59207;SDS011;44977;53.132;6.408;2023-05-02T09:38:56;5.53;;;1.60;;
59207;SDS011;44977;53.132;6.408;2023-05-02T09:44:10;5.95;;;1.30;;
59207;SDS011;44977;53.132;6.408;2023-05-02T09:49:11;6.03;;;1.70;;
59207;SDS011;44977;53.132;6.408;2023-05-02T09:59:37;5.68;;;1.40;;
59207;SDS011;44977;53.132;6.408;2023-05-02T10:04:38;6.18;;;1.88;;
59207;SDS011;44977;53.132;6.408;2023-05-02T10:09:42;7.55;;;2.22;;
59207;SDS011;44977;53.132;6.408;2023-05-02T10:14:46;7.30;;;1.60;;
59207;SDS011;44977;53.132;6.408;2023-05-02T10:20:04;7.55;;;1.80;;
59207;SDS011;44977;53.132;6.408;2023-05-02T10:25:06;7.28;;;1.70;;
59207;SDS011;44977;53.132;6.408;2023-05-02T10:30:07;7.45;;;2.10;;
59207;SDS011;44977;53.132;6.408;2023-05-02T10:35:09;7.47;;;1.50;;
59207;SDS011;44977;53.132;6.408;2023-05-02T10:40:11;5.90;;;1.67;;
59207;SDS011;44977;53.132;6.408;2023-05-02T10:45:28;6.13;;;1.70;;
59207;SDS011;44977;53.132;6.408;2023-05-02T10:50:44;5.20;;;1.25;;
59207;SDS011;44977;53.132;6.408;2023-05-02T10:56:06;9.38;;;1.52;;
59207;SDS011;44977;53.132;6.408;2023-05-02T11:06:29;6.78;;;1.90;;
59207;SDS011;44977;53.132;6.408;2023-05-02T11:11:38;9.48;;;2.28;;
59207;SDS011;44977;53.132;6.408;2023-05-02T11:42:55;5.07;;;1.23;;
59207;SDS011;44977;53.132;6.408;2023-05-02T11:47:57;5.43;;;1.48;;
59207;SDS011;44977;53.132;6.408;2023-05-02T11:52:57;5.50;;;1.40;;
59207;SDS011;44977;53.132;6.408;2023-05-02T11:57:59;4.65;;;1.33;;
59207;SDS011;44977;53.132;6.408;2023-05-02T12:03:00;5.28;;;1.30;;
59207;SDS011;44977;53.132;6.408;2023-05-02T12:08:01;5.20;;;1.50;;
59207;SDS011;44977;53.132;6.408;2023-05-02T12:13:04;4.88;;;1.40;;
59207;SDS011;44977;53.132;6.408;2023-05-02T12:18:05;4.47;;;1.30;;
59207;SDS011;44977;53.132;6.408;2023-05-02T12:23:07;5.60;;;1.33;;
59207;SDS011;44977;53.132;6.408;2023-05-02T12:28:09;5.18;;;1.45;;
59207;SDS011;44977;53.132;6.408;2023-05-02T12:33:10;6.95;;;1.30;;
59207;SDS011;44977;53.132;6.408;2023-05-02T12:38:15;5.38;;;1.48;;
59207;SDS011;44977;53.132;6.408;2023-05-02T12:43:17;5.93;;;1.43;;
59207;SDS011;44977;53.132;6.408;2023-05-02T12:48:22;5.00;;;1.05;;
59207;SDS011;44977;53.132;6.408;2023-05-02T12:53:37;3.15;;;0.90;;
59207;SDS011;44977;53.132;6.408;2023-05-02T12:58:46;3.05;;;0.80;;
59207;SDS011;44977;53.132;6.408;2023-05-02T13:03:49;4.25;;;0.98;;
59207;SDS011;44977;53.132;6.408;2023-05-02T13:08:50;3.80;;;1.17;;
59207;SDS011;44977;53.132;6.408;2023-05-02T13:13:51;3.72;;;0.90;;
59207;SDS011;44977;53.132;6.408;2023-05-02T13:18:52;7.10;;;1.70;;
59207;SDS011;44977;53.132;6.408;2023-05-02T13:23:53;5.38;;;1.42;;
59207;SDS011;44977;53.132;6.408;2023-05-02T13:28:54;6.30;;;1.52;;
59207;SDS011;44977;53.132;6.408;2023-05-02T13:33:55;6.13;;;1.38;;
59207;SDS011;44977;53.132;6.408;2023-05-02T13:38:56;4.32;;;1.15;;
59207;SDS011;44977;53.132;6.408;2023-05-02T13:43:56;4.55;;;0.88;;
59207;SDS011;44977;53.132;6.408;2023-05-02T13:48:57;4.78;;;0.90;;
59207;SDS011;44977;53.132;6.408;2023-05-02T13:53:58;3.08;;;0.90;;
59207;SDS011;44977;53.132;6.408;2023-05-02T13:59:00;3.30;;;1.08;;
59207;SDS011;44977;53.132;6.408;2023-05-02T14:04:00;4.78;;;1.10;;
59207;SDS011;44977;53.132;6.408;2023-05-02T14:09:05;3.15;;;0.90;;
59207;SDS011;44977;53.132;6.408;2023-05-02T14:14:06;4.47;;;1.20;;
59207;SDS011;44977;53.132;6.408;2023-05-02T14:19:08;2.33;;;0.90;;
59207;SDS011;44977;53.132;6.408;2023-05-02T14:24:09;4.28;;;1.10;;
59207;SDS011;44977;53.132;6.408;2023-05-02T14:29:11;4.65;;;1.20;;
59207;SDS011;44977;53.132;6.408;2023-05-02T14:34:12;5.38;;;1.33;;
59207;SDS011;44977;53.132;6.408;2023-05-02T14:39:13;7.38;;;1.35;;
59207;SDS011;44977;53.132;6.408;2023-05-02T14:44:13;5.35;;;1.05;;
59207;SDS011;44977;53.132;6.408;2023-05-02T14:49:14;5.85;;;1.00;;
59207;SDS011;44977;53.132;6.408;2023-05-02T14:54:15;4.57;;;1.10;;
59207;SDS011;44977;53.132;6.408;2023-05-02T14:59:16;5.05;;;0.90;;
59207;SDS011;44977;53.132;6.408;2023-05-02T15:04:17;6.25;;;1.65;;
59207;SDS011;44977;53.132;6.408;2023-05-02T15:09:18;5.20;;;1.30;;
59207;SDS011;44977;53.132;6.408;2023-05-02T15:14:19;4.57;;;1.50;;
59207;SDS011;44977;53.132;6.408;2023-05-02T15:19:20;5.90;;;1.50;;
59207;SDS011;44977;53.132;6.408;2023-05-02T15:24:23;6.18;;;1.50;;
59207;SDS011;44977;53.132;6.408;2023-05-02T15:29:23;9.15;;;1.70;;
59207;SDS011;44977;53.132;6.408;2023-05-02T15:34:24;6.85;;;1.20;;
59207;SDS011;44977;53.132;6.408;2023-05-02T15:39:26;8.00;;;1.88;;
59207;SDS011;44977;53.132;6.408;2023-05-02T15:44:27;6.15;;;1.25;;
59207;SDS011;44977;53.132;6.408;2023-05-02T15:49:28;7.80;;;1.60;;
59207;SDS011;44977;53.132;6.408;2023-05-02T15:54:32;4.38;;;1.40;;
59207;SDS011;44977;53.132;6.408;2023-05-02T15:59:36;5.15;;;1.13;;
59207;SDS011;44977;53.132;6.408;2023-05-02T16:04:37;6.85;;;1.55;;
59207;SDS011;44977;53.132;6.408;2023-05-02T16:09:38;5.55;;;1.52;;
59207;SDS011;44977;53.132;6.408;2023-05-02T16:14:39;6.05;;;1.42;;
59207;SDS011;44977;53.132;6.408;2023-05-02T16:19:39;4.47;;;1.38;;
59207;SDS011;44977;53.132;6.408;2023-05-02T16:24:40;7.65;;;1.60;;
59207;SDS011;44977;53.132;6.408;2023-05-02T16:29:41;8.02;;;1.70;;
59207;SDS011;44977;53.132;6.408;2023-05-02T16:34:42;6.50;;;1.33;;
59207;SDS011;44977;53.132;6.408;2023-05-02T16:39:43;5.60;;;1.40;;
59207;SDS011;44977;53.132;6.408;2023-05-02T16:44:45;6.90;;;1.58;;
59207;SDS011;44977;53.132;6.408;2023-05-02T16:49:46;5.82;;;1.27;;
59207;SDS011;44977;53.132;6.408;2023-05-02T16:54:51;6.97;;;1.30;;
59207;SDS011;44977;53.132;6.408;2023-05-02T16:59:52;5.43;;;1.27;;
59207;SDS011;44977;53.132;6.408;2023-05-02T17:04:53;6.38;;;1.58;;
59207;SDS011;44977;53.132;6.408;2023-05-02T17:09:53;5.57;;;1.50;;
59207;SDS011;44977;53.132;6.408;2023-05-02T17:14:54;5.40;;;1.50;;
59207;SDS011;44977;53.132;6.408;2023-05-02T17:19:55;7.47;;;1.50;;
59207;SDS011;44977;53.132;6.408;2023-05-02T17:24:55;6.38;;;1.60;;
59207;SDS011;44977;53.132;6.408;2023-05-02T17:29:56;5.50;;;1.30;;
59207;SDS011;44977;53.132;6.408;2023-05-02T17:34:57;6.03;;;1.50;;
59207;SDS011;44977;53.132;6.408;2023-05-02T17:39:58;5.53;;;1.20;;
59207;SDS011;44977;53.132;6.408;2023-05-02T17:45:00;6.22;;;1.80;;
59207;SDS011;44977;53.132;6.408;2023-05-02T17:50:01;5.85;;;2.03;;
59207;SDS011;44977;53.132;6.408;2023-05-02T17:55:03;3.92;;;1.30;;
59207;SDS011;44977;53.132;6.408;2023-05-02T18:00:05;6.35;;;1.60;;
59207;SDS011;44977;53.132;6.408;2023-05-02T18:05:07;5.55;;;1.27;;
59207;SDS011;44977;53.132;6.408;2023-05-02T18:10:08;6.55;;;1.50;;
59207;SDS011;44977;53.132;6.408;2023-05-02T18:15:09;6.22;;;1.20;;
59207;SDS011;44977;53.132;6.408;2023-05-02T18:20:10;5.72;;;1.40;;
59207;SDS011;44977;53.132;6.408;2023-05-02T18:25:11;5.90;;;1.17;;
59207;SDS011;44977;53.132;6.408;2023-05-02T18:30:11;6.18;;;1.27;;
59207;SDS011;44977;53.132;6.408;2023-05-02T18:35:12;6.28;;;1.33;;
59207;SDS011;44977;53.132;6.408;2023-05-02T18:40:13;5.85;;;1.73;;
59207;SDS011;44977;53.132;6.408;2023-05-02T18:45:14;6.50;;;2.20;;
59207;SDS011;44977;53.132;6.408;2023-05-02T18:50:15;7.45;;;2.38;;
59207;SDS011;44977;53.132;6.408;2023-05-02T18:55:16;7.38;;;2.58;;
59207;SDS011;44977;53.132;6.408;2023-05-02T19:00:17;7.15;;;3.00;;
59207;SDS011;44977;53.132;6.408;2023-05-02T19:05:19;8.45;;;2.40;;
59207;SDS011;44977;53.132;6.408;2023-05-02T19:10:20;7.50;;;2.03;;
59207;SDS011;44977;53.132;6.408;2023-05-02T19:15:20;9.93;;;2.33;;
59207;SDS011;44977;53.132;6.408;2023-05-02T19:20:25;7.88;;;2.50;;
59207;SDS011;44977;53.132;6.408;2023-05-02T19:25:27;7.15;;;2.45;;
59207;SDS011;44977;53.132;6.408;2023-05-02T19:30:27;6.88;;;2.40;;
59207;SDS011;44977;53.132;6.408;2023-05-02T19:35:28;7.00;;;2.38;;
59207;SDS011;44977;53.132;6.408;2023-05-02T19:40:32;7.30;;;3.38;;
59207;SDS011;44977;53.132;6.408;2023-05-02T19:45:33;8.38;;;3.05;;
59207;SDS011;44977;53.132;6.408;2023-05-02T19:50:34;8.10;;;3.15;;
59207;SDS011;44977;53.132;6.408;2023-05-02T19:55:35;7.80;;;2.72;;
59207;SDS011;44977;53.132;6.408;2023-05-02T20:00:36;9.35;;;3.30;;
59207;SDS011;44977;53.132;6.408;2023-05-02T20:05:36;6.75;;;3.13;;
59207;SDS011;44977;53.132;6.408;2023-05-02T20:10:37;9.20;;;4.20;;
59207;SDS011;44977;53.132;6.408;2023-05-02T20:15:38;7.55;;;3.60;;
59207;SDS011;44977;53.132;6.408;2023-05-02T20:20:39;8.82;;;3.83;;
59207;SDS011;44977;53.132;6.408;2023-05-02T20:25:40;7.82;;;3.50;;
59207;SDS011;44977;53.132;6.408;2023-05-02T20:30:40;9.65;;;3.50;;
59207;SDS011;44977;53.132;6.408;2023-05-02T20:35:43;9.82;;;3.20;;
59207;SDS011;44977;53.132;6.408;2023-05-02T20:40:44;8.75;;;3.75;;
59207;SDS011;44977;53.132;6.408;2023-05-02T20:45:45;10.35;;;4.15;;
59207;SDS011;44977;53.132;6.408;2023-05-02T20:50:54;8.35;;;3.70;;
59207;SDS011;44977;53.132;6.408;2023-05-02T20:55:55;9.57;;;3.60;;
59207;SDS011;44977;53.132;6.408;2023-05-02T21:00:56;9.35;;;3.97;;
59207;SDS011;44977;53.132;6.408;2023-05-02T21:05:57;9.23;;;4.38;;
59207;SDS011;44977;53.132;6.408;2023-05-02T21:10:58;8.52;;;3.40;;
59207;SDS011;44977;53.132;6.408;2023-05-02T21:16:00;8.15;;;3.97;;
59207;SDS011;44977;53.132;6.408;2023-05-02T21:21:00;8.80;;;3.58;;
59207;SDS011;44977;53.132;6.408;2023-05-02T21:26:01;11.45;;;4.00;;
59207;SDS011;44977;53.132;6.408;2023-05-02T21:31:02;11.65;;;3.72;;
59207;SDS011;44977;53.132;6.408;2023-05-02T21:36:03;9.18;;;3.88;;
59207;SDS011;44977;53.132;6.408;2023-05-02T21:41:04;11.07;;;4.25;;
59207;SDS011;44977;53.132;6.408;2023-05-02T21:46:05;8.10;;;3.70;;
59207;SDS011;44977;53.132;6.408;2023-05-02T21:51:09;10.55;;;3.53;;
59207;SDS011;44977;53.132;6.408;2023-05-02T21:56:12;10.77;;;3.90;;
59207;SDS011;44977;53.132;6.408;2023-05-02T22:01:13;8.63;;;3.83;;
59207;SDS011;44977;53.132;6.408;2023-05-02T22:06:15;9.55;;;4.28;;
59207;SDS011;44977;53.132;6.408;2023-05-02T22:11:16;8.88;;;4.10;;
59207;SDS011;44977;53.132;6.408;2023-05-02T22:16:17;9.10;;;3.75;;
59207;SDS011;44977;53.132;6.408;2023-05-02T22:21:18;8.85;;;3.97;;
59207;SDS011;44977;53.132;6.408;2023-05-02T22:26:20;9.95;;;3.70;;
59207;SDS011;44977;53.132;6.408;2023-05-02T22:31:21;7.35;;;3.80;;
59207;SDS011;44977;53.132;6.408;2023-05-02T22:36:22;9.13;;;3.80;;
59207;SDS011;44977;53.132;6.408;2023-05-02T22:41:22;9.82;;;3.78;;
59207;SDS011;44977;53.132;6.408;2023-05-02T22:46:23;8.00;;;4.05;;
59207;SDS011;44977;53.132;6.408;2023-05-02T22:51:24;7.97;;;3.80;;
59207;SDS011;44977;53.132;6.408;2023-05-02T22:56:25;10.02;;;3.90;;
59207;SDS011;44977;53.132;6.408;2023-05-02T23:01:26;9.57;;;3.75;;
59207;SDS011;44977;53.132;6.408;2023-05-02T23:06:27;8.52;;;3.80;;
59207;SDS011;44977;53.132;6.408;2023-05-02T23:11:27;11.40;;;4.22;;
59207;SDS011;44977;53.132;6.408;2023-05-02T23:16:28;8.68;;;4.32;;
59207;SDS011;44977;53.132;6.408;2023-05-02T23:21:29;7.80;;;3.58;;
59207;SDS011;44977;53.132;6.408;2023-05-02T23:26:30;7.28;;;4.00;;
59207;SDS011;44977;53.132;6.408;2023-05-02T23:31:30;7.50;;;3.78;;
59207;SDS011;44977;53.132;6.408;2023-05-02T23:36:32;7.18;;;4.20;;
59207;SDS011;44977;53.132;6.408;2023-05-02T23:41:33;12.32;;;4.13;;
59207;SDS011;44977;53.132;6.408;2023-05-02T23:46:34;7.88;;;3.90;;
59207;SDS011;44977;53.132;6.408;2023-05-02T23:51:35;7.45;;;4.13;;
59207;SDS011;44977;53.132;6.408;2023-05-02T23:56:36;9.23;;;4.00;;
